createdAt,value
2022-10-11T00:01:04.695Z,100.00
2022-10-11T00:05:06.726Z,100.00
2022-10-11T00:09:08.366Z,100.00
2022-10-11T00:13:09.844Z,100.00
2022-10-11T00:17:11.307Z,100.00
2022-10-11T00:21:14.396Z,100.00
2022-10-11T00:25:16.726Z,100.00
2022-10-11T00:29:18.173Z,100.00
2022-10-11T00:33:19.711Z,100.00
2022-10-11T00:37:21.203Z,100.00
2022-10-11T00:41:22.859Z,100.00
2022-10-11T00:45:26.860Z,100.00
2022-10-11T00:49:55.959Z,100.00
2022-10-11T00:54:01.498Z,100.00
2022-10-11T00:58:03.143Z,100.00
2022-10-11T01:02:06.912Z,100.00
2022-10-11T01:06:09.157Z,100.00
2022-10-11T01:10:10.708Z,100.00
2022-10-11T01:14:35.828Z,100.00
2022-10-11T01:18:46.064Z,100.00
2022-10-11T01:23:11.505Z,100.00
2022-10-11T01:27:31.517Z,100.00
2022-10-11T01:31:47.952Z,100.00
2022-10-11T01:36:06.044Z,100.00
2022-10-11T01:40:23.333Z,100.00
2022-10-11T01:44:25.728Z,100.00
2022-10-11T01:48:27.217Z,100.00
2022-10-11T01:52:31.773Z,100.00
2022-10-11T01:56:58.577Z,100.00
2022-10-11T02:01:23.981Z,100.00
2022-10-11T02:05:49.575Z,100.00
2022-10-11T02:10:03.389Z,100.00
2022-10-11T02:14:10.531Z,100.00
2022-10-11T02:18:16.713Z,100.00
2022-10-11T02:22:23.394Z,100.00
2022-10-11T02:26:30.763Z,100.00
2022-10-11T02:30:33.991Z,100.00
2022-10-11T02:34:39.784Z,100.00
2022-10-11T02:38:49.415Z,100.00
2022-10-11T02:42:58.660Z,100.00
2022-10-11T02:47:01.811Z,100.00
2022-10-11T02:51:04.767Z,100.00
2022-10-11T02:55:07.372Z,100.00
2022-10-11T02:59:08.788Z,100.00
2022-10-11T03:03:10.208Z,100.00
2022-10-11T03:07:11.612Z,100.00
2022-10-11T03:11:13.027Z,100.00
2022-10-11T03:15:14.457Z,100.00
2022-10-11T03:19:19.320Z,100.00
2022-10-11T03:23:21.007Z,100.00
2022-10-11T03:27:22.458Z,100.00
2022-10-11T03:31:24.047Z,100.00
2022-10-11T03:35:25.456Z,100.00
2022-10-11T03:39:26.947Z,100.00
2022-10-11T03:43:28.350Z,100.00
2022-10-11T03:47:29.880Z,100.00
2022-10-11T03:51:31.781Z,100.00
2022-10-11T03:55:33.319Z,100.00
2022-10-11T03:59:34.759Z,100.00
2022-10-11T04:03:36.179Z,100.00
2022-10-11T04:07:37.621Z,100.00
2022-10-11T04:11:39.070Z,100.00
2022-10-11T04:15:41.422Z,100.00
2022-10-11T04:19:43.043Z,100.00
2022-10-11T04:23:44.633Z,100.00
2022-10-11T04:27:46.109Z,100.00
2022-10-11T04:31:47.580Z,100.00
2022-10-11T04:35:49.012Z,100.00
2022-10-11T04:39:50.566Z,100.00
2022-10-11T04:43:52.107Z,100.00
2022-10-11T04:47:53.656Z,100.00
2022-10-11T04:51:55.108Z,100.00
2022-10-11T04:55:57.969Z,100.00
2022-10-11T04:59:59.376Z,100.00
2022-10-11T05:04:00.981Z,100.00
2022-10-11T05:08:02.372Z,100.00
2022-10-11T05:12:04.135Z,100.00
2022-10-11T05:16:10.428Z,100.00
2022-10-11T05:20:12.793Z,100.00
2022-10-11T05:24:14.225Z,100.00
2022-10-11T05:28:15.682Z,100.00
2022-10-11T05:32:17.107Z,100.00
2022-10-11T05:36:18.709Z,100.00
2022-10-11T05:40:20.120Z,100.00
2022-10-11T05:44:21.650Z,100.00
2022-10-11T05:48:24.092Z,100.00
2022-10-11T05:52:25.660Z,100.00
2022-10-11T05:56:27.189Z,100.00
2022-10-11T06:00:28.624Z,100.00
2022-10-11T06:04:30.067Z,100.00
2022-10-11T06:08:31.531Z,100.00
2022-10-11T06:12:33.050Z,100.00
2022-10-11T06:16:34.539Z,100.00
2022-10-11T06:20:36.654Z,100.00
2022-10-11T06:24:38.065Z,100.00
2022-10-11T06:28:39.621Z,100.00
2022-10-11T06:32:41.088Z,100.00
2022-10-11T06:36:42.523Z,100.00
2022-10-11T06:40:44.330Z,100.00
2022-10-11T06:44:45.720Z,100.00
2022-10-11T06:48:50.349Z,100.00
2022-10-11T06:52:51.795Z,100.00
2022-10-11T06:56:53.406Z,100.00
2022-10-11T07:00:55.247Z,100.00
2022-10-11T07:04:56.744Z,100.00
2022-10-11T07:09:00.285Z,100.00
2022-10-11T07:13:01.729Z,100.00
2022-10-11T07:17:03.316Z,100.00
2022-10-11T07:21:10.961Z,100.00
2022-10-11T07:25:12.360Z,100.00
2022-10-11T07:29:13.853Z,100.00
2022-10-11T07:33:15.271Z,100.00
2022-10-11T07:37:16.784Z,100.00
2022-10-11T07:41:18.717Z,100.00
2022-10-11T07:45:20.156Z,100.00
2022-10-11T07:49:21.588Z,100.00
2022-10-11T07:53:23.017Z,100.00
2022-10-11T07:57:24.524Z,100.00
2022-10-11T08:01:27.387Z,100.00
2022-10-11T08:05:28.978Z,100.00
2022-10-11T08:09:30.847Z,100.00
2022-10-11T08:13:33.825Z,100.00
2022-10-11T08:17:35.310Z,100.00
2022-10-11T08:21:36.855Z,100.00
2022-10-11T08:25:41.190Z,100.00
2022-10-11T08:29:42.613Z,100.00
2022-10-11T08:33:44.349Z,100.00
2022-10-11T08:37:45.780Z,100.00
2022-10-11T08:41:53.032Z,100.00
2022-10-11T08:45:57.916Z,100.00
2022-10-11T08:50:00.848Z,100.00
2022-10-11T08:54:10.790Z,100.00
2022-10-11T08:58:16.344Z,100.00
2022-10-11T09:03:07.564Z,100.00
2022-10-11T09:07:33.174Z,100.00
2022-10-11T09:11:59.750Z,100.00
2022-10-11T09:16:26.040Z,100.00
2022-10-11T09:20:33.164Z,100.00
2022-10-11T09:24:45.738Z,100.00
2022-10-11T09:29:20.507Z,100.00
2022-10-11T09:33:36.366Z,100.00
2022-10-11T09:37:43.938Z,99.35
2022-10-11T09:42:01.917Z,100.00
2022-10-11T09:46:03.888Z,98.89
2022-10-11T09:50:19.660Z,97.58
2022-10-11T09:54:36.462Z,95.60
2022-10-11T09:58:38.651Z,95.03
2022-10-11T10:02:46.967Z,94.84
2022-10-11T10:06:48.387Z,91.71
2022-10-11T10:11:00.895Z,90.66
2022-10-11T10:15:17.574Z,91.07
2022-10-11T10:19:25.224Z,88.39
2022-10-11T10:23:31.034Z,88.61
2022-10-11T10:27:32.643Z,87.26
2022-10-11T10:32:01.626Z,87.96
2022-10-11T10:36:05.380Z,86.88
2022-10-11T10:40:18.285Z,84.19
2022-10-11T10:44:19.675Z,86.68
2022-10-11T10:48:53.794Z,87.29
2022-10-11T10:53:05.890Z,82.70
2022-10-11T10:57:15.101Z,83.77
2022-10-11T11:01:23.143Z,80.14
2022-10-11T11:05:51.478Z,84.22
2022-10-11T11:10:05.641Z,78.23
2022-10-11T11:14:21.838Z,77.74
2022-10-11T11:18:41.983Z,72.80
2022-10-11T11:22:54.686Z,74.19
2022-10-11T11:27:15.517Z,72.83
2022-10-11T11:31:40.328Z,76.37
2022-10-11T11:35:45.992Z,77.64
2022-10-11T11:39:55.650Z,78.91
2022-10-11T11:44:03.670Z,81.17
2022-10-11T11:48:14.976Z,75.90
2022-10-11T11:52:33.479Z,76.18
2022-10-11T11:57:16.141Z,71.31
2022-10-11T12:01:31.623Z,68.98
2022-10-11T12:05:36.162Z,71.00
2022-10-11T12:09:39.708Z,73.93
2022-10-11T12:13:42.387Z,77.46
2022-10-11T12:17:53.046Z,75.97
2022-10-11T12:22:37.482Z,81.18
2022-10-11T12:26:44.668Z,82.62
2022-10-11T12:30:50.751Z,76.16
2022-10-11T12:35:30.629Z,74.87
2022-10-11T12:39:44.403Z,72.32
2022-10-11T12:43:48.633Z,72.16
2022-10-11T12:48:01.374Z,73.59
2022-10-11T12:52:17.841Z,78.86
2022-10-11T12:56:44.155Z,79.92
2022-10-11T13:00:51.804Z,78.12
2022-10-11T13:05:04.398Z,80.31
2022-10-11T13:09:16.598Z,73.41
2022-10-11T13:13:37.309Z,77.64
2022-10-11T13:17:40.494Z,80.19
2022-10-11T13:21:42.190Z,82.88
2022-10-11T13:25:43.659Z,81.13
2022-10-11T13:29:46.111Z,81.63
2022-10-11T13:33:48.103Z,84.89
2022-10-11T13:37:49.793Z,85.90
2022-10-11T13:41:51.867Z,88.23
2022-10-11T13:45:55.043Z,100.00
2022-10-11T13:50:10.820Z,100.00
2022-10-11T13:54:14.003Z,100.00
2022-10-11T13:58:23.028Z,100.00
2022-10-11T14:02:27.776Z,100.00
2022-10-11T14:07:02.465Z,100.00
2022-10-11T14:11:06.641Z,100.00
2022-10-11T14:15:33.011Z,100.00
2022-10-11T14:19:34.499Z,100.00
2022-10-11T14:23:35.933Z,100.00
2022-10-11T14:27:38.156Z,100.00
2022-10-11T14:31:42.119Z,100.00
2022-10-11T14:35:43.756Z,100.00
2022-10-11T14:39:47.654Z,100.00
2022-10-11T14:43:49.135Z,100.00
2022-10-11T14:47:51.040Z,100.00
2022-10-11T14:51:54.277Z,100.00
2022-10-11T14:55:56.002Z,100.00
2022-10-11T14:59:57.568Z,100.00
2022-10-11T15:03:59.131Z,100.00
2022-10-11T15:08:01.371Z,100.00
2022-10-11T15:12:02.950Z,100.00
2022-10-11T15:16:04.913Z,100.00
2022-10-11T15:20:07.649Z,100.00
2022-10-11T15:24:09.122Z,100.00
2022-10-11T15:28:27.033Z,100.00
2022-10-11T15:32:28.475Z,100.00
2022-10-11T15:36:31.584Z,100.00
2022-10-11T15:40:35.458Z,100.00
2022-10-11T15:44:36.856Z,100.00
2022-10-11T15:48:38.375Z,100.00
2022-10-11T15:52:39.834Z,100.00
2022-10-11T15:56:41.428Z,100.00
2022-10-11T16:00:44.538Z,100.00
2022-10-11T16:04:45.953Z,100.00
2022-10-11T16:08:47.982Z,100.00
2022-10-11T16:12:49.686Z,100.00
2022-10-11T16:16:51.115Z,100.00
2022-10-11T16:20:52.954Z,100.00
2022-10-11T16:24:54.382Z,100.00
2022-10-11T16:28:56.837Z,100.00
2022-10-11T16:32:58.618Z,100.00
2022-10-11T16:37:00.721Z,100.00
2022-10-11T16:41:05.892Z,100.00
2022-10-11T16:45:08.224Z,100.00
2022-10-11T16:49:09.848Z,100.00
2022-10-11T16:53:11.330Z,100.00
2022-10-11T16:57:17.933Z,100.00
2022-10-11T17:01:19.573Z,100.00
2022-10-11T17:05:21.083Z,100.00
2022-10-11T17:09:22.498Z,100.00
2022-10-11T17:13:24.190Z,100.00
2022-10-11T17:17:26.910Z,100.00
2022-10-11T17:21:28.369Z,100.00
2022-10-11T17:25:29.883Z,100.00
2022-10-11T17:29:31.808Z,100.00
2022-10-11T17:33:33.486Z,100.00
2022-10-11T17:37:35.185Z,100.00
2022-10-11T17:41:36.999Z,100.00
2022-10-11T17:45:38.438Z,100.00
2022-10-11T17:49:39.936Z,100.00
2022-10-11T17:53:42.546Z,100.00
2022-10-11T17:57:44.131Z,100.00
2022-10-11T18:01:45.576Z,100.00
2022-10-11T18:05:47.047Z,100.00
2022-10-11T18:09:48.473Z,100.00
2022-10-11T18:13:52.351Z,100.00
2022-10-11T18:17:53.756Z,100.00
2022-10-11T18:21:55.181Z,100.00
2022-10-11T18:25:56.621Z,100.00
2022-10-11T18:29:58.068Z,100.00
2022-10-11T18:33:59.678Z,100.00
2022-10-11T18:38:01.230Z,100.00
2022-10-11T18:42:05.621Z,100.00
2022-10-11T18:46:10.052Z,100.00
2022-10-11T18:50:11.519Z,100.00
2022-10-11T18:54:16.663Z,100.00
2022-10-11T18:58:21.593Z,100.00
2022-10-11T19:02:23.200Z,100.00
2022-10-11T19:06:27.711Z,100.00
2022-10-11T19:10:29.099Z,100.00
2022-10-11T19:14:30.584Z,100.00
2022-10-11T19:18:32.570Z,100.00
2022-10-11T19:22:33.998Z,100.00
2022-10-11T19:26:38.693Z,100.00
2022-10-11T19:30:40.113Z,100.00
2022-10-11T19:34:41.624Z,100.00
2022-10-11T19:38:48.373Z,100.00
2022-10-11T19:42:49.824Z,100.00
2022-10-11T19:46:52.646Z,100.00
2022-10-11T19:51:02.400Z,100.00
2022-10-11T19:55:03.999Z,100.00
2022-10-11T19:59:08.921Z,100.00
2022-10-11T20:03:10.341Z,100.00
2022-10-11T20:07:11.761Z,100.00
2022-10-11T20:11:13.588Z,100.00
2022-10-11T20:15:15.066Z,100.00
2022-10-11T20:19:16.627Z,100.00
2022-10-11T20:23:18.546Z,100.00
2022-10-11T20:27:21.690Z,100.00
2022-10-11T20:31:34.044Z,100.00
2022-10-11T20:35:35.588Z,100.00
2022-10-11T20:39:37.132Z,100.00
2022-10-11T20:43:41.260Z,100.00
2022-10-11T20:47:42.656Z,100.00
2022-10-11T20:51:44.072Z,100.00
2022-10-11T20:55:46.577Z,100.00
2022-10-11T20:59:47.987Z,100.00
2022-10-11T21:03:50.281Z,100.00
2022-10-11T21:07:53.067Z,100.00
2022-10-11T21:11:54.523Z,100.00
2022-10-11T21:16:02.511Z,100.00
2022-10-11T21:20:06.008Z,100.00
2022-10-11T21:24:07.656Z,100.00
2022-10-11T21:28:09.380Z,100.00
2022-10-11T21:32:14.270Z,100.00
2022-10-11T21:36:21.016Z,100.00
2022-10-11T21:40:22.714Z,100.00
2022-10-11T21:44:24.232Z,100.00
2022-10-11T21:48:25.816Z,100.00
2022-10-11T21:52:27.263Z,100.00
2022-10-11T21:56:29.816Z,100.00
2022-10-11T22:00:31.248Z,100.00
2022-10-11T22:04:32.730Z,100.00
2022-10-11T22:08:34.266Z,100.00
2022-10-11T22:12:35.895Z,100.00
2022-10-11T22:16:37.776Z,100.00
2022-10-11T22:20:39.217Z,100.00
2022-10-11T22:24:40.696Z,100.00
2022-10-11T22:28:42.577Z,100.00
2022-10-11T22:32:44.051Z,100.00
2022-10-11T22:36:45.536Z,100.00
2022-10-11T22:40:46.982Z,100.00
2022-10-11T22:44:50.293Z,100.00
2022-10-11T22:48:51.701Z,100.00
2022-10-11T22:52:53.138Z,100.00
2022-10-11T22:56:54.558Z,100.00
2022-10-11T23:00:55.975Z,100.00
2022-10-11T23:04:58.267Z,100.00
2022-10-11T23:08:59.729Z,100.00
2022-10-11T23:13:01.164Z,100.00
2022-10-11T23:17:02.600Z,100.00
2022-10-11T23:21:04.676Z,100.00
2022-10-11T23:25:06.823Z,100.00
2022-10-11T23:29:08.285Z,100.00
2022-10-11T23:33:09.676Z,100.00
2022-10-11T23:37:11.094Z,100.00
2022-10-11T23:41:12.576Z,100.00
2022-10-11T23:45:14.036Z,100.00
2022-10-11T23:49:15.523Z,100.00
2022-10-11T23:53:17.012Z,100.00
2022-10-11T23:57:18.422Z,100.00
